createdAt,value
2018-09-17T00:00:36.069Z,100618.02
2018-09-17T00:03:05.005Z,100623.28
2018-09-17T00:05:34.078Z,100627.17
2018-09-17T00:08:03.069Z,100626.92
2018-09-17T00:10:32.019Z,100624.53
2018-09-17T00:13:01.076Z,100626.10
2018-09-17T00:15:30.092Z,100629.66
2018-09-17T00:17:59.048Z,100631.23
2018-09-17T00:20:28.005Z,100626.30
2018-09-17T00:22:56.995Z,100632.91
2018-09-17T00:25:26.120Z,100634.05
2018-09-17T00:27:55.109Z,100631.77
2018-09-17T00:30:24.060Z,100640.75
2018-09-17T00:32:53.013Z,100640.67
2018-09-17T00:35:22.002Z,100643.68
2018-09-17T00:37:51.027Z,100638.47
2018-09-17T00:40:19.984Z,100642.88
2018-09-17T00:42:48.928Z,100633.87
2018-09-17T00:45:17.890Z,100627.67
2018-09-17T00:47:46.858Z,100634.17
2018-09-17T00:50:15.832Z,100632.17
2018-09-17T00:52:44.815Z,100631.42
2018-09-17T00:55:13.780Z,100632.98
2018-09-17T00:57:42.796Z,100637.30
2018-09-17T01:00:11.733Z,100637.83
2018-09-17T01:02:40.676Z,100633.11
2018-09-17T01:05:09.647Z,100640.95
2018-09-17T01:07:38.615Z,100640.63
2018-09-17T01:10:07.617Z,100647.84
2018-09-17T01:12:36.579Z,100651.20
2018-09-17T01:15:05.599Z,100645.75
2018-09-17T01:17:34.603Z,100649.48
2018-09-17T01:20:03.623Z,100651.87
2018-09-17T01:22:32.615Z,100648.79
2018-09-17T01:25:01.655Z,100650.55
2018-09-17T01:27:30.600Z,100649.57
2018-09-17T01:29:59.528Z,100649.95
2018-09-17T01:32:28.443Z,100651.81
2018-09-17T01:34:57.415Z,100646.77
2018-09-17T01:37:26.379Z,100642.48
2018-09-17T01:39:55.473Z,100643.06
2018-09-17T01:42:24.588Z,100645.56
2018-09-17T01:44:53.645Z,100646.38
2018-09-17T01:47:22.568Z,100650.20
2018-09-17T01:49:51.507Z,100653.34
2018-09-17T01:52:20.447Z,100645.97
2018-09-17T01:54:49.388Z,100650.77
2018-09-17T01:57:19.200Z,100655.45
2018-09-17T01:59:48.124Z,100652.22
2018-09-17T02:02:17.080Z,100648.80
2018-09-17T02:04:45.996Z,100651.19
2018-09-17T02:07:15.011Z,100652.41
2018-09-17T02:09:44.003Z,100652.93
2018-09-17T02:12:13.801Z,100644.84
2018-09-17T02:14:43.397Z,100650.05
2018-09-17T02:17:12.334Z,100645.43
2018-09-17T02:19:41.398Z,100653.51
2018-09-17T02:22:10.775Z,100647.55
2018-09-17T02:24:40.131Z,100655.98
2018-09-17T02:27:09.176Z,100652.70
2018-09-17T02:29:38.295Z,100657.16
2018-09-17T02:33:31.737Z,100651.17
2018-09-17T02:36:00.979Z,100655.30
2018-09-17T02:38:30.015Z,100657.17
2018-09-17T02:40:58.984Z,100656.19
2018-09-17T02:43:27.994Z,100658.80
2018-09-17T02:45:57.027Z,100656.14
2018-09-17T02:48:25.999Z,100653.20
2018-09-17T02:50:54.999Z,100653.25
2018-09-17T02:53:24.117Z,100653.90
2018-09-17T02:55:53.090Z,100655.12
2018-09-17T02:58:22.070Z,100652.59
2018-09-17T03:00:51.014Z,100655.63
2018-09-17T03:03:20.561Z,100656.98
2018-09-17T03:05:52.838Z,100656.56
2018-09-17T03:08:21.917Z,100663.58
2018-09-17T03:10:50.897Z,100664.80
2018-09-17T03:13:19.929Z,100659.59
2018-09-17T03:15:52.298Z,100659.38
2018-09-17T03:18:34.000Z,100663.58
2018-09-17T03:21:04.058Z,100660.41
2018-09-17T03:23:34.512Z,100668.82
2018-09-17T03:26:03.522Z,100674.90
2018-09-17T03:28:32.655Z,100680.70
2018-09-17T03:31:01.655Z,100681.03
2018-09-17T03:33:30.695Z,100683.93
2018-09-17T03:35:59.689Z,100692.26
2018-09-17T03:38:45.733Z,100689.30
2018-09-17T03:41:15.313Z,100693.89
2018-09-17T03:43:45.822Z,100694.73
2018-09-17T03:46:14.952Z,100699.88
2018-09-17T03:48:43.900Z,100701.05
2018-09-17T03:51:13.435Z,100706.72
2018-09-17T03:53:42.716Z,100703.82
2018-09-17T03:56:11.718Z,100710.50
2018-09-17T03:58:40.686Z,100713.64
2018-09-17T04:01:09.630Z,100713.11
2018-09-17T04:03:38.618Z,100708.47
2018-09-17T04:06:07.286Z,100704.87
2018-09-17T04:08:36.354Z,100703.24
2018-09-17T04:11:05.335Z,100699.88
2018-09-17T04:13:34.305Z,100696.13
2018-09-17T04:16:03.310Z,100696.66
2018-09-17T04:18:32.295Z,100697.36
2018-09-17T04:21:01.296Z,100698.39
2018-09-17T04:23:36.201Z,100697.50
2018-09-17T04:26:06.293Z,100704.20
2018-09-17T04:28:35.827Z,100702.65
2018-09-17T04:31:05.143Z,100704.56
2018-09-17T04:33:37.969Z,100708.72
2018-09-17T04:36:07.384Z,100703.55
2018-09-17T04:38:36.430Z,100707.77
2018-09-17T04:41:05.489Z,100707.09
2018-09-17T04:43:34.519Z,100709.33
2018-09-17T04:46:03.494Z,100710.20
2018-09-17T04:48:32.474Z,100708.95
2018-09-17T04:51:01.438Z,100711.77
2018-09-17T04:53:30.452Z,100711.49
2018-09-17T04:55:59.424Z,100711.33
2018-09-17T04:58:28.457Z,100709.58
2018-09-17T05:00:57.425Z,100713.84
2018-09-17T05:03:26.387Z,100719.31
2018-09-17T05:05:55.378Z,100716.54
2018-09-17T05:08:24.367Z,100714.73
2018-09-17T05:10:53.340Z,100712.33
2018-09-17T05:13:22.329Z,100720.98
2018-09-17T05:15:51.280Z,100720.95
2018-09-17T05:18:20.253Z,100727.73
2018-09-17T05:20:49.314Z,100731.09
2018-09-17T05:23:18.267Z,100733.30
2018-09-17T05:25:47.308Z,100734.23
2018-09-17T05:28:16.282Z,100738.30
2018-09-17T05:30:45.227Z,100744.75
2018-09-17T05:33:14.232Z,100742.59
2018-09-17T05:35:43.210Z,100730.94
2018-09-17T05:38:12.240Z,100731.15
2018-09-17T05:40:41.205Z,100734.95
2018-09-17T05:43:10.228Z,100730.94
2018-09-17T05:45:39.176Z,100737.82
2018-09-17T05:48:08.126Z,100732.13
2018-09-17T05:50:37.096Z,100736.28
2018-09-17T05:53:06.147Z,100732.16
2018-09-17T05:55:35.171Z,100730.89
2018-09-17T05:58:04.120Z,100729.84
2018-09-17T06:00:33.227Z,100735.63
2018-09-17T06:03:02.182Z,100733.90
2018-09-17T06:05:31.237Z,100741.69
2018-09-17T06:08:00.195Z,100743.20
2018-09-17T06:10:29.150Z,100748.36
2018-09-17T06:12:58.151Z,100741.75
2018-09-17T06:15:27.138Z,100747.88
2018-09-17T06:17:56.111Z,100752.06
2018-09-17T06:20:25.121Z,100750.51
2018-09-17T06:22:54.183Z,100750.05
2018-09-17T06:25:23.194Z,100755.37
2018-09-17T06:27:52.161Z,100751.73
2018-09-17T06:30:21.187Z,100752.70
2018-09-17T06:32:50.147Z,100757.12
2018-09-17T06:35:19.223Z,100754.65
2018-09-17T06:37:48.224Z,100756.56
2018-09-17T06:40:17.203Z,100753.05
2018-09-17T06:42:46.221Z,100764.46
2018-09-17T06:45:15.271Z,100768.48
2018-09-17T06:47:44.238Z,100762.09
2018-09-17T06:50:13.257Z,100772.44
2018-09-17T06:52:42.295Z,100776.00
2018-09-17T06:55:11.290Z,100777.07
2018-09-17T06:57:40.649Z,100768.64
2018-09-17T07:00:09.844Z,100772.37
2018-09-17T07:02:38.911Z,100778.40
2018-09-17T07:05:07.895Z,100769.54
2018-09-17T07:07:36.908Z,100776.84
2018-09-17T07:10:06.191Z,100781.67
2018-09-17T07:12:35.165Z,100786.44
2018-09-17T07:15:04.304Z,100778.95
2018-09-17T07:17:33.316Z,100782.20
2018-09-17T07:20:02.342Z,100773.91
2018-09-17T07:22:31.379Z,100782.09
2018-09-17T07:25:00.472Z,100783.55
2018-09-17T07:27:29.480Z,100780.23
2018-09-17T07:29:58.486Z,100777.12
2018-09-17T07:32:28.515Z,100780.25
2018-09-17T07:34:57.476Z,100782.85
2018-09-17T07:37:26.501Z,100780.84
2018-09-17T07:39:55.481Z,100775.59
2018-09-17T07:42:24.518Z,100782.82
2018-09-17T07:44:53.509Z,100789.14
2018-09-17T07:47:22.547Z,100787.67
2018-09-17T07:49:51.563Z,100785.17
2018-09-17T07:52:20.529Z,100785.41
2018-09-17T07:54:49.522Z,100784.16
2018-09-17T07:57:18.515Z,100777.20
2018-09-17T07:59:47.584Z,100785.22
2018-09-17T08:02:16.583Z,100784.86
2018-09-17T08:04:45.586Z,100786.33
2018-09-17T08:07:14.590Z,100788.00
2018-09-17T08:09:43.683Z,100784.84
2018-09-17T08:12:12.740Z,100790.87
2018-09-17T08:14:41.876Z,100785.27
2018-09-17T08:17:10.892Z,100788.51
2018-09-17T08:19:41.065Z,100782.52
2018-09-17T08:22:10.114Z,100783.33
2018-09-17T08:24:39.136Z,100783.09
2018-09-17T08:27:08.119Z,100777.53
2018-09-17T08:29:37.127Z,100783.34
2018-09-17T08:32:06.319Z,100770.30
2018-09-17T08:34:35.304Z,100770.55
2018-09-17T08:37:04.334Z,100773.44
2018-09-17T08:39:33.346Z,100766.91
2018-09-17T08:42:02.471Z,100770.05
2018-09-17T08:44:31.492Z,100767.13
2018-09-17T08:47:00.474Z,100763.41
2018-09-17T08:49:29.492Z,100762.17
2018-09-17T08:51:58.455Z,100766.16
2018-09-17T08:54:27.517Z,100758.58
2018-09-17T08:57:00.289Z,100754.11
2018-09-17T08:59:34.291Z,100757.16
2018-09-17T09:02:08.383Z,100750.59
2018-09-17T09:04:42.413Z,100757.04
2018-09-17T09:07:16.194Z,100748.27
2018-09-17T09:09:45.281Z,100753.48
2018-09-17T09:12:22.008Z,100750.33
2018-09-17T09:15:27.311Z,100748.95
2018-09-17T09:17:56.308Z,100750.02
2018-09-17T09:20:25.408Z,100746.10
2018-09-17T09:22:54.389Z,100744.67
2018-09-17T09:25:23.379Z,100739.81
2018-09-17T09:27:52.393Z,100735.75
2018-09-17T09:30:21.476Z,100734.06
2018-09-17T09:32:50.462Z,100729.78
2018-09-17T09:35:19.433Z,100729.75
2018-09-17T09:37:48.481Z,100722.74
2018-09-17T09:40:17.461Z,100727.48
2018-09-17T09:42:46.529Z,100729.20
2018-09-17T09:45:16.469Z,100721.84
2018-09-17T09:47:46.446Z,100721.13
2018-09-17T09:50:15.470Z,100722.31
2018-09-17T09:52:44.480Z,100722.52
2018-09-17T09:55:13.570Z,100723.61
2018-09-17T09:57:42.549Z,100720.12
2018-09-17T10:00:16.671Z,100722.66
2018-09-17T10:02:52.651Z,100718.52
2018-09-17T10:05:21.821Z,100714.33
2018-09-17T10:07:51.328Z,100715.27
2018-09-17T10:10:25.467Z,100715.63
2018-09-17T10:13:00.365Z,100712.59
2018-09-17T10:15:34.545Z,100707.62
2018-09-17T10:18:08.551Z,100704.87
2018-09-17T10:20:37.632Z,100700.14
2018-09-17T10:23:06.631Z,100696.52
2018-09-17T10:25:35.770Z,100698.98
2018-09-17T10:28:04.745Z,100699.79
2018-09-17T10:30:33.746Z,100694.13
2018-09-17T10:33:03.662Z,100688.27
2018-09-17T10:35:32.631Z,100693.98
2018-09-17T10:38:01.976Z,100688.69
2018-09-17T10:40:30.974Z,100685.63
2018-09-17T10:43:00.124Z,100691.80
2018-09-17T10:45:29.105Z,100692.67
2018-09-17T10:47:58.101Z,100687.73
2018-09-17T10:50:27.092Z,100686.33
2018-09-17T10:52:56.059Z,100680.77
2018-09-17T10:55:25.063Z,100677.40
2018-09-17T10:57:54.105Z,100674.11
2018-09-17T11:00:23.753Z,100676.89
2018-09-17T11:02:52.738Z,100674.84
2018-09-17T11:05:21.772Z,100673.02
2018-09-17T11:07:50.748Z,100670.19
2018-09-17T11:10:19.766Z,100665.88
2018-09-17T11:12:48.786Z,100663.87
2018-09-17T11:15:17.765Z,100660.36
2018-09-17T11:17:46.841Z,100659.94
2018-09-17T11:20:15.834Z,100663.84
2018-09-17T11:22:44.851Z,100660.03
2018-09-17T11:25:14.023Z,100661.76
2018-09-17T11:27:43.020Z,100652.07
2018-09-17T11:30:12.041Z,100651.52
2018-09-17T11:32:41.089Z,100648.77
2018-09-17T11:35:10.091Z,100648.03
2018-09-17T11:37:39.091Z,100645.45
2018-09-17T11:40:08.111Z,100634.36
2018-09-17T11:42:37.121Z,100632.51
2018-09-17T11:45:06.519Z,100632.73
2018-09-17T11:47:35.538Z,100629.12
2018-09-17T11:50:04.545Z,100621.77
2018-09-17T11:52:33.839Z,100621.10
2018-09-17T11:55:03.075Z,100620.12
2018-09-17T11:57:32.048Z,100616.68
2018-09-17T12:00:01.103Z,100612.52
2018-09-17T12:02:32.998Z,100605.12
2018-09-17T12:05:06.728Z,100604.22
2018-09-17T12:07:40.224Z,100604.11
2018-09-17T12:10:09.876Z,100603.33
2018-09-17T12:12:39.613Z,100596.55
2018-09-17T12:15:09.251Z,100592.32
2018-09-17T12:17:38.308Z,100591.36
2018-09-17T12:20:07.374Z,100590.98
2018-09-17T12:22:36.414Z,100589.83
2018-09-17T12:25:05.431Z,100589.09
2018-09-17T12:27:34.451Z,100586.89
2018-09-17T12:30:03.497Z,100585.86
2018-09-17T12:32:32.488Z,100581.64
2018-09-17T12:35:01.455Z,100580.95
2018-09-17T12:37:30.473Z,100580.23
2018-09-17T12:39:59.508Z,100576.37
2018-09-17T12:42:28.534Z,100576.20
2018-09-17T12:44:57.502Z,100572.00
2018-09-17T12:47:26.628Z,100569.66
2018-09-17T12:49:55.597Z,100566.86
2018-09-17T12:52:24.599Z,100564.83
2018-09-17T12:54:53.575Z,100567.15
2018-09-17T12:57:22.631Z,100561.72
2018-09-17T12:59:51.630Z,100566.45
2018-09-17T13:02:20.598Z,100562.34
2018-09-17T13:04:49.582Z,100554.35
2018-09-17T13:07:19.307Z,100556.83
2018-09-17T13:09:48.504Z,100554.88
2018-09-17T13:12:17.857Z,100558.73
2018-09-17T13:14:46.876Z,100553.20
2018-09-17T13:17:15.936Z,100546.58
2018-09-17T13:19:44.913Z,100549.89
2018-09-17T13:22:13.969Z,100532.94
2018-09-17T13:24:42.957Z,100545.16
2018-09-17T13:27:12.005Z,100544.05
2018-09-17T13:29:41.385Z,100539.35
2018-09-17T13:32:10.456Z,100536.59
2018-09-17T13:34:39.808Z,100542.40
2018-09-17T13:37:09.018Z,100536.01
2018-09-17T13:39:38.129Z,100539.58
2018-09-17T13:42:07.161Z,100533.48
2018-09-17T13:44:36.277Z,100534.30
2018-09-17T13:47:05.645Z,100530.14
2018-09-17T13:49:34.732Z,100526.55
2018-09-17T13:52:03.735Z,100528.21
2018-09-17T13:54:32.751Z,100523.75
2018-09-17T13:57:01.793Z,100514.05
2018-09-17T13:59:30.766Z,100512.14
2018-09-17T14:01:59.760Z,100505.77
2018-09-17T14:04:28.881Z,100506.28
2018-09-17T14:06:57.876Z,100498.21
2018-09-17T14:09:26.864Z,100500.14
2018-09-17T14:11:55.901Z,100497.66
2018-09-17T14:14:24.949Z,100497.90
2018-09-17T14:16:53.923Z,100493.48
2018-09-17T14:19:22.991Z,100493.16
2018-09-17T14:21:52.118Z,100489.05
2018-09-17T14:24:21.114Z,100491.50
2018-09-17T14:26:50.092Z,100493.13
2018-09-17T14:29:19.133Z,100485.90
2018-09-17T14:31:53.119Z,100483.12
2018-09-17T14:34:22.186Z,100481.70
2018-09-17T14:36:51.501Z,100487.18
2018-09-17T14:39:20.573Z,100487.45
2018-09-17T14:41:49.582Z,100482.50
2018-09-17T14:44:18.687Z,100483.25
2018-09-17T14:46:47.676Z,100480.75
2018-09-17T14:49:16.728Z,100480.75
2018-09-17T14:51:45.839Z,100472.47
2018-09-17T14:54:14.819Z,100477.39
2018-09-17T14:56:43.928Z,100471.75
2018-09-17T14:59:13.049Z,100476.17
2018-09-17T15:01:42.149Z,100473.44
2018-09-17T15:04:11.146Z,100472.56
2018-09-17T15:06:40.149Z,100478.30
2018-09-17T15:09:10.326Z,100481.00
2018-09-17T15:11:39.372Z,100487.58
2018-09-17T15:14:08.510Z,100482.06
2018-09-17T15:16:37.547Z,100481.14
2018-09-17T15:19:06.713Z,100481.69
2018-09-17T15:21:35.707Z,100491.84
2018-09-17T15:24:04.865Z,100486.84
2018-09-17T15:26:33.856Z,100485.73
2018-09-17T15:29:02.870Z,100484.55
2018-09-17T15:31:31.963Z,100474.55
2018-09-17T15:34:01.096Z,100474.16
2018-09-17T15:36:30.118Z,100468.58
2018-09-17T15:38:59.144Z,100472.06
2018-09-17T15:41:28.338Z,100482.48
2018-09-17T15:43:57.252Z,100472.48
2018-09-17T15:46:26.284Z,100485.16
2018-09-17T15:48:55.257Z,100477.63
2018-09-17T15:51:24.389Z,100478.02
2018-09-17T15:53:53.382Z,100477.92
2018-09-17T15:56:22.486Z,100476.17
2018-09-17T15:58:51.530Z,100478.78
2018-09-17T16:01:20.622Z,100478.69
2018-09-17T16:03:49.644Z,100474.52
2018-09-17T16:06:18.612Z,100477.41
2018-09-17T16:08:47.781Z,100478.52
2018-09-17T16:11:16.715Z,100480.51
2018-09-17T16:13:46.757Z,100483.83
2018-09-17T16:16:15.764Z,100482.70
2018-09-17T16:18:44.740Z,100485.27
2018-09-17T16:21:13.878Z,100484.41
2018-09-17T16:23:42.844Z,100484.63
2018-09-17T16:26:11.920Z,100481.63
2018-09-17T16:28:40.954Z,100486.83
2018-09-17T16:31:10.116Z,100484.27
2018-09-17T16:33:39.250Z,100486.67
2018-09-17T16:36:08.268Z,100483.96
2018-09-17T16:38:37.309Z,100496.73
2018-09-17T16:41:06.733Z,100490.77
2018-09-17T16:43:35.773Z,100492.83
2018-09-17T16:48:32.592Z,100503.27
2018-09-17T16:51:01.623Z,100499.36
2018-09-17T16:53:30.871Z,100500.56
2018-09-17T16:55:59.768Z,100504.17
2018-09-17T16:58:28.744Z,100510.58
2018-09-17T17:00:57.727Z,100508.59
2018-09-17T17:03:26.721Z,100505.17
2018-09-17T17:05:55.778Z,100513.77
2018-09-17T17:08:24.781Z,100516.30
2018-09-17T17:10:53.858Z,100516.36
2018-09-17T17:13:22.799Z,100517.73
2018-09-17T17:15:51.861Z,100523.82
2018-09-17T17:18:21.824Z,100517.91
2018-09-17T17:20:50.899Z,100520.95
2018-09-17T17:23:19.868Z,100517.12
2018-09-17T17:25:48.848Z,100517.73
2018-09-17T17:28:18.345Z,100519.38
2018-09-17T17:30:47.428Z,100515.79
2018-09-17T17:33:16.565Z,100516.74
2018-09-17T17:35:46.330Z,100522.19
2018-09-17T17:38:15.396Z,100523.52
2018-09-17T17:40:44.485Z,100525.36
2018-09-17T17:43:13.543Z,100526.53
2018-09-17T17:45:42.508Z,100522.91
2018-09-17T17:48:11.481Z,100529.98
2018-09-17T17:50:40.483Z,100530.88
2018-09-17T17:53:09.465Z,100537.97
2018-09-17T17:55:38.501Z,100533.99
2018-09-17T17:58:07.590Z,100543.55
2018-09-17T18:00:36.758Z,100543.69
2018-09-17T18:03:05.744Z,100540.42
2018-09-17T18:05:34.840Z,100539.42
2018-09-17T18:08:03.884Z,100545.52
2018-09-17T18:10:33.075Z,100545.67
2018-09-17T18:13:02.145Z,100544.11
2018-09-17T18:15:31.231Z,100549.39
2018-09-17T18:18:00.333Z,100549.50
2018-09-17T18:20:29.389Z,100548.59
2018-09-17T18:22:58.441Z,100546.30
2018-09-17T18:25:27.436Z,100550.49
2018-09-17T18:27:56.488Z,100553.67
2018-09-17T18:30:25.459Z,100554.09
2018-09-17T18:32:54.541Z,100560.73
2018-09-17T18:35:23.447Z,100553.72
2018-09-17T18:37:52.413Z,100543.48
2018-09-17T18:40:21.412Z,100549.24
2018-09-17T18:42:50.466Z,100547.28
2018-09-17T18:45:19.616Z,100543.61
2018-09-17T18:47:48.535Z,100544.66
2018-09-17T18:50:17.594Z,100550.42
2018-09-17T18:52:46.551Z,100543.61
2018-09-17T18:55:15.613Z,100541.94
2018-09-17T18:57:44.677Z,100545.50
2018-09-17T19:00:13.815Z,100538.90
2018-09-17T19:02:42.912Z,100541.63
2018-09-17T19:05:11.965Z,100542.36
2018-09-17T19:07:41.005Z,100539.56
2018-09-17T19:10:09.990Z,100532.33
2018-09-17T19:12:39.003Z,100534.53
2018-09-17T19:15:13.143Z,100534.00
2018-09-17T19:17:42.933Z,100535.47
2018-09-17T19:20:13.044Z,100534.53
2018-09-17T19:22:47.167Z,100542.91
2018-09-17T19:25:16.769Z,100542.59
2018-09-17T19:27:50.914Z,100541.65
2018-09-17T19:30:19.924Z,100541.44
2018-09-17T19:32:49.053Z,100547.41
2018-09-17T19:35:18.147Z,100543.73
2018-09-17T19:37:52.301Z,100538.53
2018-09-17T19:40:22.608Z,100544.71
2018-09-17T19:42:51.973Z,100543.24
2018-09-17T19:45:26.042Z,100544.81
2018-09-17T19:47:55.138Z,100549.53
2018-09-17T19:50:29.116Z,100551.70
2018-09-17T19:52:58.130Z,100544.92
2018-09-17T19:55:27.171Z,100544.60
2018-09-17T19:58:01.301Z,100543.77
2018-09-17T20:00:30.399Z,100546.25
2018-09-17T20:02:59.342Z,100543.33
2018-09-17T20:05:33.242Z,100545.00
2018-09-17T20:08:02.302Z,100542.48
2018-09-17T20:10:31.367Z,100554.02
2018-09-17T20:13:00.397Z,100555.27
2018-09-17T20:15:29.372Z,100557.05
2018-09-17T20:17:58.352Z,100548.70
2018-09-17T20:20:27.428Z,100559.57
2018-09-17T20:22:56.630Z,100562.82
2018-09-17T20:25:25.669Z,100562.39
2018-09-17T20:27:54.675Z,100565.75
2018-09-17T20:30:23.738Z,100566.68
2018-09-17T20:32:52.827Z,100566.81
2018-09-17T20:35:22.027Z,100570.50
2018-09-17T20:37:51.011Z,100571.86
2018-09-17T20:40:20.048Z,100579.58
2018-09-17T20:42:49.049Z,100575.10
2018-09-17T20:45:18.101Z,100579.98
2018-09-17T20:47:47.069Z,100582.84
2018-09-17T20:50:16.030Z,100583.88
2018-09-17T20:52:45.031Z,100578.14
2018-09-17T20:55:14.038Z,100587.25
2018-09-17T20:57:42.958Z,100582.20
2018-09-17T21:00:11.968Z,100582.93
2018-09-17T21:02:41.012Z,100585.65
2018-09-17T21:05:09.968Z,100590.05
2018-09-17T21:07:39.056Z,100594.57
2018-09-17T21:10:08.088Z,100600.44
2018-09-17T21:12:37.190Z,100596.97
2018-09-17T21:15:06.178Z,100595.41
2018-09-17T21:17:35.175Z,100589.45
2018-09-17T21:20:04.150Z,100588.42
2018-09-17T21:22:33.123Z,100591.12
2018-09-17T21:25:02.215Z,100599.30
2018-09-17T21:27:31.108Z,100595.94
2018-09-17T21:30:00.140Z,100602.03
2018-09-17T21:32:29.096Z,100602.33
2018-09-17T21:34:58.119Z,100596.68
2018-09-17T21:37:27.077Z,100599.20
2018-09-17T21:39:56.097Z,100609.14
2018-09-17T21:42:25.136Z,100607.86
2018-09-17T21:44:54.099Z,100605.98
2018-09-17T21:47:23.149Z,100605.02
2018-09-17T21:49:52.221Z,100610.15
2018-09-17T21:52:21.282Z,100609.74
2018-09-17T21:54:50.236Z,100614.31
2018-09-17T21:57:19.259Z,100607.31
2018-09-17T21:59:48.284Z,100608.87
2018-09-17T22:02:17.350Z,100601.71
2018-09-17T22:04:46.511Z,100605.47
2018-09-17T22:07:15.496Z,100607.55
2018-09-17T22:09:44.454Z,100603.91
2018-09-17T22:12:13.428Z,100611.74
2018-09-17T22:14:42.457Z,100603.27
2018-09-17T22:17:11.437Z,100605.22
2018-09-17T22:19:40.557Z,100605.02
2018-09-17T22:22:09.535Z,100606.50
2018-09-17T22:24:38.572Z,100610.78
2018-09-17T22:27:07.696Z,100607.42
2018-09-17T22:29:36.708Z,100610.47
2018-09-17T22:32:05.744Z,100611.82
2018-09-17T22:34:34.717Z,100609.83
2018-09-17T22:37:03.681Z,100608.38
2018-09-17T22:39:32.653Z,100604.17
2018-09-17T22:42:01.767Z,100602.89
2018-09-17T22:44:30.704Z,100596.09
2018-09-17T22:46:59.792Z,100596.60
2018-09-17T22:49:28.760Z,100603.40
2018-09-17T22:51:57.724Z,100603.19
2018-09-17T22:54:26.695Z,100607.59
2018-09-17T22:56:55.648Z,100607.27
2018-09-17T22:59:24.631Z,100608.05
2018-09-17T23:01:53.647Z,100610.16
2018-09-17T23:04:22.698Z,100583.09
2018-09-17T23:06:51.653Z,100601.62
2018-09-17T23:09:20.664Z,100595.79
2018-09-17T23:11:49.652Z,100593.78
2018-09-17T23:14:18.605Z,100600.66
2018-09-17T23:16:47.584Z,100597.00
2018-09-17T23:19:47.523Z,100594.36
2018-09-17T23:22:16.502Z,100589.73
2018-09-17T23:24:45.456Z,100588.88
2018-09-17T23:27:14.419Z,100592.20
2018-09-17T23:29:43.383Z,100596.37
2018-09-17T23:32:12.404Z,100594.16
2018-09-17T23:34:41.357Z,100599.84
2018-09-17T23:37:10.353Z,100593.37
2018-09-17T23:39:39.366Z,100599.20
2018-09-17T23:42:08.388Z,100591.60
2018-09-17T23:44:37.484Z,100591.18
2018-09-17T23:47:06.917Z,100591.70
2018-09-17T23:49:35.875Z,100597.06
2018-09-17T23:52:04.917Z,100589.11
2018-09-17T23:54:34.012Z,100593.05
2018-09-17T23:57:03.033Z,100588.43
2018-09-17T23:59:31.980Z,100591.15
